sensor_id;sensor_type;location;lat;lon;timestamp;pressure;altitude;pressure_sealevel;temperature;humidity
12594;BME280;6362;50.208;9.182;2023-06-24T00:00:47;100697.19;;;16.22;84.48
12594;BME280;6362;50.208;9.182;2023-06-24T00:03:13;100699.94;;;16.16;83.15
12594;BME280;6362;50.208;9.182;2023-06-24T00:05:42;100693.13;;;16.06;83.05
12594;BME280;6362;50.208;9.182;2023-06-24T00:08:08;100693.03;;;16.09;83.20
12594;BME280;6362;50.208;9.182;2023-06-24T00:10:33;100703.53;;;16.09;83.22
12594;BME280;6362;50.208;9.182;2023-06-24T00:12:59;100698.31;;;16.07;84.23
12594;BME280;6362;50.208;9.182;2023-06-24T00:15:28;100700.06;;;16.08;83.39
12594;BME280;6362;50.208;9.182;2023-06-24T00:17:53;100707.03;;;16.09;83.42
12594;BME280;6362;50.208;9.182;2023-06-24T00:20:19;100706.25;;;16.06;84.17
12594;BME280;6362;50.208;9.182;2023-06-24T00:22:45;100704.69;;;15.93;83.76
12594;BME280;6362;50.208;9.182;2023-06-24T00:25:14;100702.97;;;15.92;84.41
12594;BME280;6362;50.208;9.182;2023-06-24T00:27:41;100710.00;;;15.90;83.96
12594;BME280;6362;50.208;9.182;2023-06-24T00:30:08;100711.66;;;15.95;84.64
12594;BME280;6362;50.208;9.182;2023-06-24T00:32:34;100715.00;;;16.03;84.58
12594;BME280;6362;50.208;9.182;2023-06-24T00:34:59;100707.22;;;15.99;84.06
12594;BME280;6362;50.208;9.182;2023-06-24T00:37:25;100712.56;;;15.94;84.77
12594;BME280;6362;50.208;9.182;2023-06-24T00:39:51;100717.91;;;15.87;83.82
12594;BME280;6362;50.208;9.182;2023-06-24T00:42:16;100711.97;;;15.77;83.88
12594;BME280;6362;50.208;9.182;2023-06-24T00:44:42;100718.22;;;15.68;84.57
12594;BME280;6362;50.208;9.182;2023-06-24T00:47:08;100709.59;;;15.58;84.68
12594;BME280;6362;50.208;9.182;2023-06-24T00:49:34;100718.44;;;15.53;85.09
12594;BME280;6362;50.208;9.182;2023-06-24T00:51:59;100714.97;;;15.51;85.19
12594;BME280;6362;50.208;9.182;2023-06-24T00:54:26;100718.56;;;15.45;85.46
12594;BME280;6362;50.208;9.182;2023-06-24T00:56:57;100720.28;;;15.46;85.07
12594;BME280;6362;50.208;9.182;2023-06-24T00:59:26;100719.53;;;15.38;85.05
12594;BME280;6362;50.208;9.182;2023-06-24T01:01:55;100727.47;;;15.32;84.38
12594;BME280;6362;50.208;9.182;2023-06-24T01:04:21;100722.53;;;15.09;85.12
12594;BME280;6362;50.208;9.182;2023-06-24T01:06:46;100728.78;;;14.99;86.05
12594;BME280;6362;50.208;9.182;2023-06-24T01:09:12;100730.53;;;14.98;87.24
12594;BME280;6362;50.208;9.182;2023-06-24T01:11:38;100732.25;;;15.02;87.87
12594;BME280;6362;50.208;9.182;2023-06-24T01:14:04;100732.13;;;15.10;88.10
12594;BME280;6362;50.208;9.182;2023-06-24T01:16:40;100731.22;;;15.14;87.31
12594;BME280;6362;50.208;9.182;2023-06-24T01:22:16;100731.34;;;15.05;86.19
12594;BME280;6362;50.208;9.182;2023-06-24T01:25:18;100729.72;;;14.96;86.14
12594;BME280;6362;50.208;9.182;2023-06-24T01:33:44;100729.03;;;14.81;87.33
12594;BME280;6362;50.208;9.182;2023-06-24T01:36:15;100726.41;;;14.81;87.74
12594;BME280;6362;50.208;9.182;2023-06-24T01:39:01;100729.91;;;14.79;86.15
12594;BME280;6362;50.208;9.182;2023-06-24T01:43:57;100732.81;;;14.53;87.13
12594;BME280;6362;50.208;9.182;2023-06-24T01:46:25;100725.09;;;14.40;88.10
12594;BME280;6362;50.208;9.182;2023-06-24T01:48:53;100722.50;;;14.37;89.03
12594;BME280;6362;50.208;9.182;2023-06-24T01:51:20;100719.00;;;14.39;89.97
12594;BME280;6362;50.208;9.182;2023-06-24T01:53:51;100723.09;;;14.65;91.36
12594;BME280;6362;50.208;9.182;2023-06-24T01:56:18;100712.56;;;14.72;90.67
12594;BME280;6362;50.208;9.182;2023-06-24T01:58:46;100719.44;;;14.79;90.09
12594;BME280;6362;50.208;9.182;2023-06-24T02:01:13;100729.00;;;14.82;88.81
12594;BME280;6362;50.208;9.182;2023-06-24T02:03:41;100729.78;;;14.90;88.18
12594;BME280;6362;50.208;9.182;2023-06-24T02:06:07;100722.81;;;14.89;87.41
12594;BME280;6362;50.208;9.182;2023-06-24T02:08:37;100723.75;;;14.82;87.49
12594;BME280;6362;50.208;9.182;2023-06-24T02:11:03;100714.91;;;14.94;88.80
12594;BME280;6362;50.208;9.182;2023-06-24T02:13:30;100719.91;;;15.12;88.79
12594;BME280;6362;50.208;9.182;2023-06-24T02:16:01;100721.50;;;15.21;87.99
12594;BME280;6362;50.208;9.182;2023-06-24T02:18:32;100713.59;;;15.25;86.05
12594;BME280;6362;50.208;9.182;2023-06-24T02:21:00;100710.34;;;15.08;85.36
12594;BME280;6362;50.208;9.182;2023-06-24T02:23:27;100716.72;;;14.87;85.25
12594;BME280;6362;50.208;9.182;2023-06-24T02:25:54;100725.59;;;14.75;86.51
12594;BME280;6362;50.208;9.182;2023-06-24T02:28:20;100714.19;;;14.83;87.96
12594;BME280;6362;50.208;9.182;2023-06-24T02:30:47;100720.22;;;14.86;88.11
12594;BME280;6362;50.208;9.182;2023-06-24T02:33:13;100711.44;;;14.90;87.87
12594;BME280;6362;50.208;9.182;2023-06-24T02:35:39;100719.22;;;14.96;87.80
12594;BME280;6362;50.208;9.182;2023-06-24T02:38:07;100712.19;;;15.01;88.10
12594;BME280;6362;50.208;9.182;2023-06-24T02:40:32;100716.59;;;14.99;87.20
12594;BME280;6362;50.208;9.182;2023-06-24T02:42:58;100709.63;;;14.97;86.96
12594;BME280;6362;50.208;9.182;2023-06-24T02:45:24;100709.84;;;14.78;86.53
12594;BME280;6362;50.208;9.182;2023-06-24T02:47:51;100708.28;;;14.64;86.58
12594;BME280;6362;50.208;9.182;2023-06-24T02:50:17;100713.44;;;14.70;87.38
12594;BME280;6362;50.208;9.182;2023-06-24T02:52:44;100709.06;;;14.72;86.45
12594;BME280;6362;50.208;9.182;2023-06-24T02:55:10;100712.66;;;14.63;86.77
12594;BME280;6362;50.208;9.182;2023-06-24T02:57:36;100714.38;;;14.66;86.98
12594;BME280;6362;50.208;9.182;2023-06-24T03:00:03;100715.25;;;14.65;87.86
12594;BME280;6362;50.208;9.182;2023-06-24T03:02:31;100718.75;;;14.64;87.17
12594;BME280;6362;50.208;9.182;2023-06-24T03:04:58;100717.09;;;14.57;87.32
12594;BME280;6362;50.208;9.182;2023-06-24T03:07:24;100712.78;;;14.52;87.74
12594;BME280;6362;50.208;9.182;2023-06-24T03:09:51;100709.25;;;14.57;87.47
12594;BME280;6362;50.208;9.182;2023-06-24T03:12:17;100722.34;;;14.55;87.26
12594;BME280;6362;50.208;9.182;2023-06-24T03:14:42;100717.94;;;14.59;85.86
12594;BME280;6362;50.208;9.182;2023-06-24T03:17:08;100717.19;;;14.43;86.02
12594;BME280;6362;50.208;9.182;2023-06-24T03:19:34;100714.75;;;14.26;86.57
12594;BME280;6362;50.208;9.182;2023-06-24T03:21:59;100721.88;;;14.12;87.83
12594;BME280;6362;50.208;9.182;2023-06-24T03:24:24;100725.41;;;14.05;88.51
12594;BME280;6362;50.208;9.182;2023-06-24T03:26:50;100718.44;;;14.07;88.60
12594;BME280;6362;50.208;9.182;2023-06-24T03:29:22;100728.94;;;14.02;87.97
12594;BME280;6362;50.208;9.182;2023-06-24T03:31:47;100728.03;;;14.05;87.87
12594;BME280;6362;50.208;9.182;2023-06-24T03:34:13;100729.84;;;13.99;87.77
12594;BME280;6362;50.208;9.182;2023-06-24T03:36:38;100728.25;;;13.80;88.34
12594;BME280;6362;50.208;9.182;2023-06-24T03:39:05;100720.41;;;13.80;89.95
12594;BME280;6362;50.208;9.182;2023-06-24T03:41:30;100722.16;;;13.83;90.17
12594;BME280;6362;50.208;9.182;2023-06-24T03:43:56;100729.06;;;13.87;88.98
12594;BME280;6362;50.208;9.182;2023-06-24T03:46:21;100733.31;;;13.98;88.38
12594;BME280;6362;50.208;9.182;2023-06-24T03:48:47;100733.41;;;13.91;88.42
12594;BME280;6362;50.208;9.182;2023-06-24T03:51:12;100735.16;;;13.90;88.47
12594;BME280;6362;50.208;9.182;2023-06-24T03:53:38;100743.06;;;13.83;88.78
12594;BME280;6362;50.208;9.182;2023-06-24T03:56:04;100741.41;;;13.72;89.22
12594;BME280;6362;50.208;9.182;2023-06-24T03:58:29;100748.44;;;13.60;89.97
12594;BME280;6362;50.208;9.182;2023-06-24T04:00:55;100747.59;;;13.58;90.66
12594;BME280;6362;50.208;9.182;2023-06-24T04:03:23;100748.44;;;13.60;91.10
12594;BME280;6362;50.208;9.182;2023-06-24T04:05:50;100745.78;;;13.69;91.50
12594;BME280;6362;50.208;9.182;2023-06-24T04:08:15;100744.00;;;13.71;91.28
12594;BME280;6362;50.208;9.182;2023-06-24T04:10:41;100746.47;;;13.91;88.94
12594;BME280;6362;50.208;9.182;2023-06-24T04:13:08;100749.94;;;13.96;87.67
12594;BME280;6362;50.208;9.182;2023-06-24T04:15:33;100748.31;;;13.83;88.03
12594;BME280;6362;50.208;9.182;2023-06-24T04:17:59;100746.59;;;13.77;88.40
12594;BME280;6362;50.208;9.182;2023-06-24T04:20:24;100750.13;;;13.70;88.90
12594;BME280;6362;50.208;9.182;2023-06-24T04:22:50;100762.34;;;13.68;88.87
12594;BME280;6362;50.208;9.182;2023-06-24T04:25:15;100758.00;;;13.67;89.42
12594;BME280;6362;50.208;9.182;2023-06-24T04:27:41;100760.50;;;13.81;88.71
12594;BME280;6362;50.208;9.182;2023-06-24T04:30:06;100752.72;;;13.73;88.62
12594;BME280;6362;50.208;9.182;2023-06-24T04:32:32;100762.25;;;13.79;89.69
12594;BME280;6362;50.208;9.182;2023-06-24T04:34:59;100753.56;;;13.78;90.38
12594;BME280;6362;50.208;9.182;2023-06-24T04:37:26;100759.56;;;13.89;90.79
12594;BME280;6362;50.208;9.182;2023-06-24T04:39:51;100762.16;;;13.92;89.21
12594;BME280;6362;50.208;9.182;2023-06-24T04:42:17;100768.22;;;13.96;87.60
12594;BME280;6362;50.208;9.182;2023-06-24T04:44:42;100769.03;;;14.03;86.68
12594;BME280;6362;50.208;9.182;2023-06-24T04:47:08;100765.59;;;13.97;86.86
12594;BME280;6362;50.208;9.182;2023-06-24T04:49:33;100771.72;;;13.93;87.88
12594;BME280;6362;50.208;9.182;2023-06-24T04:52:02;100774.34;;;13.93;88.21
12594;BME280;6362;50.208;9.182;2023-06-24T04:54:28;100770.78;;;14.05;88.00
12594;BME280;6362;50.208;9.182;2023-06-24T04:56:53;100768.09;;;14.16;87.34
12594;BME280;6362;50.208;9.182;2023-06-24T04:59:21;100770.53;;;14.34;86.21
12594;BME280;6362;50.208;9.182;2023-06-24T05:01:46;100766.03;;;14.45;85.61
12594;BME280;6362;50.208;9.182;2023-06-24T05:04:12;100767.75;;;14.51;85.42
12594;BME280;6362;50.208;9.182;2023-06-24T05:06:41;100768.53;;;14.62;84.48
12594;BME280;6362;50.208;9.182;2023-06-24T05:09:06;100776.25;;;14.74;84.01
12594;BME280;6362;50.208;9.182;2023-06-24T05:11:31;100772.63;;;14.85;84.23
12594;BME280;6362;50.208;9.182;2023-06-24T05:13:57;100779.53;;;14.92;83.20
12594;BME280;6362;50.208;9.182;2023-06-24T05:16:23;100781.13;;;15.05;83.02
12594;BME280;6362;50.208;9.182;2023-06-24T05:18:49;100787.09;;;15.15;82.54
12594;BME280;6362;50.208;9.182;2023-06-24T05:21:15;100793.06;;;15.27;81.98
12594;BME280;6362;50.208;9.182;2023-06-24T05:23:40;100793.72;;;15.43;81.30
12594;BME280;6362;50.208;9.182;2023-06-24T05:26:06;100801.44;;;15.55;80.52
12594;BME280;6362;50.208;9.182;2023-06-24T05:28:31;100802.28;;;15.56;79.71
12594;BME280;6362;50.208;9.182;2023-06-24T05:30:57;100801.31;;;15.65;80.16
12594;BME280;6362;50.208;9.182;2023-06-24T05:33:22;100796.84;;;15.73;80.04
12594;BME280;6362;50.208;9.182;2023-06-24T05:35:48;100807.19;;;15.82;79.95
12594;BME280;6362;50.208;9.182;2023-06-24T05:38:14;100795.63;;;15.95;79.48
12594;BME280;6362;50.208;9.182;2023-06-24T05:40:40;100786.53;;;16.15;78.96
12594;BME280;6362;50.208;9.182;2023-06-24T05:43:05;100792.59;;;16.21;79.10
12594;BME280;6362;50.208;9.182;2023-06-24T05:45:31;100800.25;;;16.33;78.82
12594;BME280;6362;50.208;9.182;2023-06-24T05:47:56;100804.31;;;16.51;77.93
12594;BME280;6362;50.208;9.182;2023-06-24T05:50:21;100797.06;;;16.64;76.87
12594;BME280;6362;50.208;9.182;2023-06-24T05:52:47;100799.50;;;16.75;76.06
12594;BME280;6362;50.208;9.182;2023-06-24T05:55:12;100802.84;;;16.84;75.07
12594;BME280;6362;50.208;9.182;2023-06-24T05:57:39;100797.41;;;16.92;75.33
12594;BME280;6362;50.208;9.182;2023-06-24T06:00:05;100799.91;;;17.00;75.76
12594;BME280;6362;50.208;9.182;2023-06-24T06:02:31;100803.19;;;17.11;75.69
12594;BME280;6362;50.208;9.182;2023-06-24T06:04:56;100799.13;;;17.36;74.42
12594;BME280;6362;50.208;9.182;2023-06-24T06:07:22;100798.63;;;17.61;72.70
12594;BME280;6362;50.208;9.182;2023-06-24T06:09:47;100800.88;;;17.78;72.10
12594;BME280;6362;50.208;9.182;2023-06-24T06:12:12;100799.59;;;17.96;71.91
12594;BME280;6362;50.208;9.182;2023-06-24T06:14:38;100799.06;;;18.17;71.32
12594;BME280;6362;50.208;9.182;2023-06-24T06:17:04;100802.94;;;18.38;70.44
12594;BME280;6362;50.208;9.182;2023-06-24T06:19:29;100798.94;;;18.56;69.51
12594;BME280;6362;50.208;9.182;2023-06-24T06:21:54;100796.91;;;18.65;68.48
12594;BME280;6362;50.208;9.182;2023-06-24T06:24:20;100800.44;;;18.64;68.65
12594;BME280;6362;50.208;9.182;2023-06-24T06:26:45;100794.28;;;18.65;68.88
12594;BME280;6362;50.208;9.182;2023-06-24T06:29:11;100792.47;;;18.69;68.93
12594;BME280;6362;50.208;9.182;2023-06-24T06:31:37;100789.47;;;18.83;68.65
12594;BME280;6362;50.208;9.182;2023-06-24T06:34:03;100787.34;;;18.95;67.93
12594;BME280;6362;50.208;9.182;2023-06-24T06:36:28;100787.03;;;19.06;66.81
12594;BME280;6362;50.208;9.182;2023-06-24T06:38:54;100783.22;;;19.16;67.02
12594;BME280;6362;50.208;9.182;2023-06-24T06:41:19;100791.44;;;19.35;66.05
12594;BME280;6362;50.208;9.182;2023-06-24T06:43:53;100788.34;;;19.50;65.37
12594;BME280;6362;50.208;9.182;2023-06-24T06:46:19;100791.50;;;19.63;62.83
12594;BME280;6362;50.208;9.182;2023-06-24T06:48:44;100787.22;;;19.59;63.25
12594;BME280;6362;50.208;9.182;2023-06-24T06:51:10;100797.50;;;19.68;62.98
12594;BME280;6362;50.208;9.182;2023-06-24T06:53:35;100796.97;;;19.85;62.76
12594;BME280;6362;50.208;9.182;2023-06-24T06:56:00;100792.22;;;19.96;62.53
12594;BME280;6362;50.208;9.182;2023-06-24T06:58:26;100796.00;;;20.14;62.58
12594;BME280;6362;50.208;9.182;2023-06-24T07:00:51;100787.63;;;20.28;61.55
12594;BME280;6362;50.208;9.182;2023-06-24T07:03:17;100791.50;;;20.43;60.82
12594;BME280;6362;50.208;9.182;2023-06-24T07:05:42;100789.59;;;20.49;61.06
12594;BME280;6362;50.208;9.182;2023-06-24T07:08:08;100789.84;;;20.67;60.19
12594;BME280;6362;50.208;9.182;2023-06-24T07:10:33;100787.16;;;20.68;59.81
12594;BME280;6362;50.208;9.182;2023-06-24T07:12:59;100788.41;;;20.81;60.30
12594;BME280;6362;50.208;9.182;2023-06-24T07:15:25;100781.72;;;20.96;59.49
12594;BME280;6362;50.208;9.182;2023-06-24T07:17:51;100778.16;;;20.97;58.75
12594;BME280;6362;50.208;9.182;2023-06-24T07:20:17;100772.19;;;21.16;58.87
12594;BME280;6362;50.208;9.182;2023-06-24T07:22:42;100777.78;;;21.31;59.05
12594;BME280;6362;50.208;9.182;2023-06-24T07:25:08;100778.63;;;21.55;59.16
12594;BME280;6362;50.208;9.182;2023-06-24T07:27:33;100775.47;;;21.68;58.11
12594;BME280;6362;50.208;9.182;2023-06-24T07:29:59;100783.94;;;21.77;57.62
12594;BME280;6362;50.208;9.182;2023-06-24T07:32:24;100772.94;;;21.86;57.22
12594;BME280;6362;50.208;9.182;2023-06-24T07:34:49;100772.25;;;22.03;56.47
12594;BME280;6362;50.208;9.182;2023-06-24T07:37:15;100774.22;;;22.20;55.20
12594;BME280;6362;50.208;9.182;2023-06-24T07:39:40;100769.72;;;22.43;54.36
12594;BME280;6362;50.208;9.182;2023-06-24T07:42:07;100767.63;;;22.51;54.11
12594;BME280;6362;50.208;9.182;2023-06-24T07:44:32;100777.41;;;22.69;53.87
12594;BME280;6362;50.208;9.182;2023-06-24T07:46:58;100774.22;;;22.81;52.85
12594;BME280;6362;50.208;9.182;2023-06-24T07:49:23;100778.78;;;22.98;52.23
12594;BME280;6362;50.208;9.182;2023-06-24T07:51:49;100779.03;;;23.12;52.52
12594;BME280;6362;50.208;9.182;2023-06-24T07:54:14;100779.69;;;23.17;52.55
12594;BME280;6362;50.208;9.182;2023-06-24T07:56:40;100776.09;;;23.18;51.71
12594;BME280;6362;50.208;9.182;2023-06-24T07:59:05;100772.28;;;23.24;51.39
12594;BME280;6362;50.208;9.182;2023-06-24T08:01:31;100767.97;;;23.40;51.53
12594;BME280;6362;50.208;9.182;2023-06-24T08:03:56;100780.25;;;23.62;50.45
12594;BME280;6362;50.208;9.182;2023-06-24T08:06:22;100777.88;;;23.75;50.63
12594;BME280;6362;50.208;9.182;2023-06-24T08:08:47;100780.09;;;23.84;49.68
12594;BME280;6362;50.208;9.182;2023-06-24T08:11:13;100775.56;;;23.86;50.32
12594;BME280;6362;50.208;9.182;2023-06-24T08:13:39;100777.78;;;23.95;50.79
12594;BME280;6362;50.208;9.182;2023-06-24T08:16:04;100771.06;;;24.05;50.30
12594;BME280;6362;50.208;9.182;2023-06-24T08:18:30;100770.91;;;24.08;49.79
12594;BME280;6362;50.208;9.182;2023-06-24T08:20:55;100776.38;;;24.22;50.42
12594;BME280;6362;50.208;9.182;2023-06-24T08:23:21;100776.31;;;24.24;49.40
12594;BME280;6362;50.208;9.182;2023-06-24T08:25:46;100776.06;;;24.29;49.31
12594;BME280;6362;50.208;9.182;2023-06-24T08:28:12;100776.56;;;24.37;49.38
12594;BME280;6362;50.208;9.182;2023-06-24T08:30:37;100760.47;;;24.40;49.70
12594;BME280;6362;50.208;9.182;2023-06-24T08:33:03;100765.84;;;24.56;48.90
12594;BME280;6362;50.208;9.182;2023-06-24T08:35:28;100756.28;;;24.69;48.44
12594;BME280;6362;50.208;9.182;2023-06-24T08:37:53;100760.53;;;24.89;48.40
12594;BME280;6362;50.208;9.182;2023-06-24T08:40:19;100768.41;;;25.08;47.33
12594;BME280;6362;50.208;9.182;2023-06-24T08:42:44;100766.03;;;25.19;46.31
12594;BME280;6362;50.208;9.182;2023-06-24T08:45:10;100766.19;;;25.32;46.70
12594;BME280;6362;50.208;9.182;2023-06-24T08:47:35;100768.53;;;25.38;44.66
12594;BME280;6362;50.208;9.182;2023-06-24T08:50:04;100761.75;;;25.32;44.87
12594;BME280;6362;50.208;9.182;2023-06-24T08:52:32;100762.53;;;25.34;44.53
12594;BME280;6362;50.208;9.182;2023-06-24T08:55:01;100763.13;;;25.55;43.10
12594;BME280;6362;50.208;9.182;2023-06-24T08:57:27;100754.78;;;25.61;42.70
12594;BME280;6362;50.208;9.182;2023-06-24T08:59:52;100753.22;;;25.73;43.17
12594;BME280;6362;50.208;9.182;2023-06-24T09:02:18;100760.41;;;26.02;42.97
12594;BME280;6362;50.208;9.182;2023-06-24T09:04:43;100767.16;;;26.24;41.58
12594;BME280;6362;50.208;9.182;2023-06-24T09:07:09;100754.22;;;26.32;41.43
12594;BME280;6362;50.208;9.182;2023-06-24T09:09:45;100755.81;;;26.50;39.61
12594;BME280;6362;50.208;9.182;2023-06-24T09:12:12;100760.19;;;26.51;40.29
12594;BME280;6362;50.208;9.182;2023-06-24T09:14:38;100755.44;;;26.56;38.78
12594;BME280;6362;50.208;9.182;2023-06-24T09:17:06;100750.47;;;26.65;38.31
12594;BME280;6362;50.208;9.182;2023-06-24T09:19:32;100754.69;;;26.83;38.35
12594;BME280;6362;50.208;9.182;2023-06-24T09:22:08;100744.78;;;27.14;38.12
12594;BME280;6362;50.208;9.182;2023-06-24T09:24:35;100744.16;;;27.37;38.32
12594;BME280;6362;50.208;9.182;2023-06-24T09:27:02;100736.72;;;27.69;38.31
12594;BME280;6362;50.208;9.182;2023-06-24T09:29:31;100735.53;;;27.87;37.78
12594;BME280;6362;50.208;9.182;2023-06-24T09:31:57;100730.53;;;28.08;36.99
12594;BME280;6362;50.208;9.182;2023-06-24T09:34:25;100727.56;;;28.13;35.57
12594;BME280;6362;50.208;9.182;2023-06-24T09:36:53;100720.03;;;28.45;36.42
12594;BME280;6362;50.208;9.182;2023-06-24T09:39:19;100727.31;;;28.43;35.52
12594;BME280;6362;50.208;9.182;2023-06-24T09:41:49;100720.81;;;28.20;37.30
12594;BME280;6362;50.208;9.182;2023-06-24T09:44:18;100718.09;;;28.34;37.68
12594;BME280;6362;50.208;9.182;2023-06-24T09:46:47;100715.75;;;28.55;35.93
12594;BME280;6362;50.208;9.182;2023-06-24T09:49:13;100719.47;;;28.78;36.23
12594;BME280;6362;50.208;9.182;2023-06-24T09:51:42;100708.13;;;28.62;34.88
12594;BME280;6362;50.208;9.182;2023-06-24T09:54:10;100707.91;;;28.78;36.12
12594;BME280;6362;50.208;9.182;2023-06-24T09:56:36;100703.72;;;28.74;35.56
12594;BME280;6362;50.208;9.182;2023-06-24T09:59:06;100694.47;;;29.03;35.44
12594;BME280;6362;50.208;9.182;2023-06-24T10:01:38;100703.91;;;29.09;35.31
12594;BME280;6362;50.208;9.182;2023-06-24T10:04:05;100698.81;;;29.30;34.27
12594;BME280;6362;50.208;9.182;2023-06-24T10:06:32;100691.59;;;29.43;33.51
12594;BME280;6362;50.208;9.182;2023-06-24T10:08:58;100693.72;;;29.14;34.25
12594;BME280;6362;50.208;9.182;2023-06-24T10:11:23;100685.91;;;29.35;33.86
12594;BME280;6362;50.208;9.182;2023-06-24T10:13:48;100678.41;;;29.64;33.71
12594;BME280;6362;50.208;9.182;2023-06-24T10:16:15;100677.84;;;29.71;34.15
12594;BME280;6362;50.208;9.182;2023-06-24T10:18:40;100678.03;;;30.04;32.40
12594;BME280;6362;50.208;9.182;2023-06-24T10:21:08;100678.72;;;30.18;31.63
12594;BME280;6362;50.208;9.182;2023-06-24T10:26:08;100670.34;;;30.23;34.66
12594;BME280;6362;50.208;9.182;2023-06-24T10:45:01;100640.00;;;31.65;30.85
12594;BME280;6362;50.208;9.182;2023-06-24T10:47:28;100640.31;;;31.72;28.91
12594;BME280;6362;50.208;9.182;2023-06-24T10:49:54;100645.03;;;31.26;28.72
12594;BME280;6362;50.208;9.182;2023-06-24T10:52:20;100642.00;;;30.97;31.51
12594;BME280;6362;50.208;9.182;2023-06-24T10:54:47;100631.06;;;31.44;29.02
12594;BME280;6362;50.208;9.182;2023-06-24T10:57:12;100640.13;;;31.20;32.09
12594;BME280;6362;50.208;9.182;2023-06-24T10:59:42;100635.56;;;31.00;32.02
12594;BME280;6362;50.208;9.182;2023-06-24T11:02:09;100628.84;;;31.49;29.27
12594;BME280;6362;50.208;9.182;2023-06-24T11:07:22;100624.34;;;31.59;29.35
12594;BME280;6362;50.208;9.182;2023-06-24T11:09:55;100618.53;;;31.54;29.79
12594;BME280;6362;50.208;9.182;2023-06-24T11:12:32;100624.25;;;31.61;29.45
12594;BME280;6362;50.208;9.182;2023-06-24T11:15:00;100606.66;;;31.57;30.53
12594;BME280;6362;50.208;9.182;2023-06-24T11:17:26;100615.44;;;31.79;28.96
12594;BME280;6362;50.208;9.182;2023-06-24T11:19:56;100613.41;;;32.35;27.58
12594;BME280;6362;50.208;9.182;2023-06-24T11:22:23;100604.59;;;31.81;30.04
12594;BME280;6362;50.208;9.182;2023-06-24T11:24:48;100604.50;;;31.92;28.29
12594;BME280;6362;50.208;9.182;2023-06-24T11:27:14;100607.88;;;32.36;27.75
12594;BME280;6362;50.208;9.182;2023-06-24T11:29:39;100602.25;;;31.88;27.41
12594;BME280;6362;50.208;9.182;2023-06-24T11:32:09;100594.38;;;31.64;27.81
12594;BME280;6362;50.208;9.182;2023-06-24T11:34:35;100590.41;;;31.15;29.59
12594;BME280;6362;50.208;9.182;2023-06-24T11:37:12;100597.31;;;30.96;28.35
12594;BME280;6362;50.208;9.182;2023-06-24T11:39:38;100589.16;;;30.87;29.48
12594;BME280;6362;50.208;9.182;2023-06-24T11:42:06;100595.28;;;31.32;29.83
12594;BME280;6362;50.208;9.182;2023-06-24T11:44:33;100581.69;;;31.66;28.68
12594;BME280;6362;50.208;9.182;2023-06-24T11:47:06;100583.00;;;32.23;28.87
12594;BME280;6362;50.208;9.182;2023-06-24T11:49:32;100588.03;;;32.06;27.65
12594;BME280;6362;50.208;9.182;2023-06-24T11:51:57;100585.56;;;32.24;27.19
12594;BME280;6362;50.208;9.182;2023-06-24T11:54:23;100584.94;;;32.42;26.45
12594;BME280;6362;50.208;9.182;2023-06-24T11:56:52;100574.00;;;32.83;25.81
12594;BME280;6362;50.208;9.182;2023-06-24T11:59:22;100583.00;;;33.23;25.96
12594;BME280;6362;50.208;9.182;2023-06-24T12:01:57;100578.38;;;32.75;24.98
12594;BME280;6362;50.208;9.182;2023-06-24T12:04:30;100569.22;;;32.97;25.19
12594;BME280;6362;50.208;9.182;2023-06-24T12:06:55;100570.13;;;33.26;26.64
12594;BME280;6362;50.208;9.182;2023-06-24T12:09:21;100562.88;;;33.46;25.80
12594;BME280;6362;50.208;9.182;2023-06-24T12:11:46;100563.56;;;33.58;26.63
12594;BME280;6362;50.208;9.182;2023-06-24T12:14:12;100561.44;;;33.23;26.26
12594;BME280;6362;50.208;9.182;2023-06-24T12:16:38;100555.13;;;32.74;27.49
12594;BME280;6362;50.208;9.182;2023-06-24T12:19:05;100555.56;;;32.79;26.39
12594;BME280;6362;50.208;9.182;2023-06-24T12:21:31;100553.13;;;32.66;27.16
12594;BME280;6362;50.208;9.182;2023-06-24T12:23:56;100558.91;;;33.21;26.55
12594;BME280;6362;50.208;9.182;2023-06-24T12:26:22;100551.50;;;33.23;25.26
12594;BME280;6362;50.208;9.182;2023-06-24T12:28:47;100541.06;;;32.61;26.27
12594;BME280;6362;50.208;9.182;2023-06-24T12:31:13;100544.06;;;32.87;26.67
12594;BME280;6362;50.208;9.182;2023-06-24T12:33:38;100540.88;;;32.93;27.42
12594;BME280;6362;50.208;9.182;2023-06-24T12:36:04;100548.53;;;33.17;24.59
12594;BME280;6362;50.208;9.182;2023-06-24T12:38:29;100541.13;;;33.57;25.66
12594;BME280;6362;50.208;9.182;2023-06-24T12:40:56;100531.63;;;33.53;25.09
12594;BME280;6362;50.208;9.182;2023-06-24T12:43:22;100526.81;;;33.47;24.41
12594;BME280;6362;50.208;9.182;2023-06-24T12:45:47;100520.78;;;33.82;24.47
12594;BME280;6362;50.208;9.182;2023-06-24T12:48:13;100522.63;;;33.82;25.11
12594;BME280;6362;50.208;9.182;2023-06-24T12:50:39;100509.16;;;34.47;22.98
12594;BME280;6362;50.208;9.182;2023-06-24T12:53:04;100510.28;;;34.72;23.78
12594;BME280;6362;50.208;9.182;2023-06-24T12:55:30;100509.88;;;34.84;23.83
12594;BME280;6362;50.208;9.182;2023-06-24T12:57:56;100509.50;;;34.97;22.40
12594;BME280;6362;50.208;9.182;2023-06-24T13:00:23;100504.56;;;35.28;22.99
12594;BME280;6362;50.208;9.182;2023-06-24T13:02:50;100496.59;;;35.27;22.61
12594;BME280;6362;50.208;9.182;2023-06-24T13:05:16;100496.81;;;35.33;22.06
12594;BME280;6362;50.208;9.182;2023-06-24T13:07:42;100510.38;;;34.98;21.58
12594;BME280;6362;50.208;9.182;2023-06-24T13:10:08;100501.94;;;34.83;24.00
12594;BME280;6362;50.208;9.182;2023-06-24T13:12:34;100501.00;;;34.56;22.58
12594;BME280;6362;50.208;9.182;2023-06-24T13:14:59;100497.88;;;34.51;23.21
12594;BME280;6362;50.208;9.182;2023-06-24T13:17:25;100496.59;;;34.55;22.31
12594;BME280;6362;50.208;9.182;2023-06-24T13:19:51;100488.25;;;34.84;23.03
12594;BME280;6362;50.208;9.182;2023-06-24T13:22:17;100487.25;;;35.03;22.52
12594;BME280;6362;50.208;9.182;2023-06-24T13:24:43;100484.44;;;35.05;22.41
12594;BME280;6362;50.208;9.182;2023-06-24T13:27:09;100487.19;;;34.59;23.73
12594;BME280;6362;50.208;9.182;2023-06-24T13:29:35;100483.16;;;34.81;23.69